Time;durP1;ratioP1;P1;durP2;ratioP2;P2;SDS_P1;SDS_P2;PMS_P1;PMS_P2;Temp;Humidity;BMP_temperature;BMP_pressure;BME280_temperature;BME280_humidity;BME280_pressure;Samples;Min_cycle;Max_cycle;Signal;HPM_P1;HPM_P2
2024/02/08 00:00:55;;;;;;;12.23;8.00;;;;;;;;;;5058408;28;20716;-86
2024/02/08 00:03:21;;;;;;;7.87;6.77;;;;;;;;;;5072002;28;20442;-86
2024/02/08 00:05:47;;;;;;;9.55;8.48;;;;;;;;;;5074372;28;20415;-86
2024/02/08 00:08:13;;;;;;;12.63;8.00;;;;;;;;;;5073115;28;20207;-87
2024/02/08 00:10:39;;;;;;;9.50;7.68;;;;;;;;;;5073835;28;20446;-86
2024/02/08 00:13:05;;;;;;;11.23;8.48;;;;;;;;;;5073810;28;20231;-86
2024/02/08 00:15:31;;;;;;;14.48;7.10;;;;;;;;;;5039576;28;20198;-86
2024/02/08 00:17:57;;;;;;;11.00;8.20;;;;;;;;;;5057332;28;20271;-86
2024/02/08 00:20:26;;;;;;;9.65;7.60;;;;;;;;;;5057143;28;20847;-86
2024/02/08 00:22:53;;;;;;;9.45;7.28;;;;;;;;;;5074155;28;20529;-86
2024/02/08 00:25:19;;;;;;;10.27;7.47;;;;;;;;;;5075326;28;20711;-86
2024/02/08 00:27:48;;;;;;;10.48;7.88;;;;;;;;;;5053205;28;20221;-86
2024/02/08 00:30:17;;;;;;;7.80;6.40;;;;;;;;;;5053549;28;20527;-86
2024/02/08 00:32:48;;;;;;;10.57;7.03;;;;;;;;;;5054503;28;20178;-86
2024/02/08 00:35:17;;;;;;;7.50;6.20;;;;;;;;;;5053843;28;20569;-85
2024/02/08 00:37:43;;;;;;;7.00;5.75;;;;;;;;;;5052690;28;20178;-86
2024/02/08 00:40:09;;;;;;;6.03;5.18;;;;;;;;;;5055079;28;20208;-85
2024/02/08 00:42:35;;;;;;;7.20;6.18;;;;;;;;;;5054403;28;20544;-85
2024/02/08 00:45:02;;;;;;;9.10;6.90;;;;;;;;;;5053027;28;20280;-85
2024/02/08 00:47:28;;;;;;;7.93;6.55;;;;;;;;;;5054736;28;20408;-85
2024/02/08 00:49:54;;;;;;;9.10;7.18;;;;;;;;;;5053270;28;20239;-85
2024/02/08 00:52:20;;;;;;;10.57;7.10;;;;;;;;;;5052606;28;20189;-84
2024/02/08 00:54:50;;;;;;;11.00;7.50;;;;;;;;;;5036583;28;20471;-85
2024/02/08 00:57:16;;;;;;;8.68;6.95;;;;;;;;;;5053201;28;20420;-85
2024/02/08 00:59:42;;;;;;;10.48;8.38;;;;;;;;;;5053626;28;20177;-85
2024/02/08 01:02:11;;;;;;;14.00;9.20;;;;;;;;;;5054051;28;20196;-84
2024/02/08 01:04:37;;;;;;;10.50;7.70;;;;;;;;;;5051672;28;20189;-85
2024/02/08 01:07:03;;;;;;;10.95;7.97;;;;;;;;;;5052578;28;20173;-85
2024/02/08 01:09:29;;;;;;;12.73;8.60;;;;;;;;;;5054155;28;20169;-86
2024/02/08 01:11:55;;;;;;;13.73;8.68;;;;;;;;;;5053035;28;20174;-86
2024/02/08 01:14:21;;;;;;;11.60;8.68;;;;;;;;;;5036145;28;20695;-85
2024/02/08 01:16:51;;;;;;;10.77;8.10;;;;;;;;;;5056329;28;20186;-85
2024/02/08 01:19:22;;;;;;;14.63;10.77;;;;;;;;;;5058323;28;20174;-85
2024/02/08 01:21:48;;;;;;;14.52;9.05;;;;;;;;;;5058084;28;20158;-85
2024/02/08 01:24:18;;;;;;;12.88;9.25;;;;;;;;;;5058278;28;20510;-85
2024/02/08 01:26:44;;;;;;;12.40;8.90;;;;;;;;;;5059931;28;20189;-85
2024/02/08 01:29:09;;;;;;;15.00;9.93;;;;;;;;;;5060159;28;20277;-85
2024/02/08 01:31:37;;;;;;;15.70;8.77;;;;;;;;;;5060108;28;20408;-85
2024/02/08 01:34:05;;;;;;;13.05;9.20;;;;;;;;;;5043338;28;20474;-85
2024/02/08 01:36:31;;;;;;;9.88;7.32;;;;;;;;;;5059839;28;20181;-85
2024/02/08 01:38:58;;;;;;;10.70;8.33;;;;;;;;;;5059913;28;20183;-85
2024/02/08 01:41:24;;;;;;;11.90;9.13;;;;;;;;;;5059925;28;20422;-85
2024/02/08 01:43:51;;;;;;;12.00;8.70;;;;;;;;;;5077127;28;20580;-86
2024/02/08 01:46:17;;;;;;;11.10;8.82;;;;;;;;;;5059982;28;20172;-85
2024/02/08 01:48:44;;;;;;;13.00;8.63;;;;;;;;;;5077267;28;20617;-85
2024/02/08 01:51:13;;;;;;;9.73;8.00;;;;;;;;;;5043856;28;20278;-85
2024/02/08 01:53:41;;;;;;;12.20;9.10;;;;;;;;;;5043783;28;20557;-85
2024/02/08 01:56:11;;;;;;;13.18;7.82;;;;;;;;;;5078448;28;20175;-85
2024/02/08 01:58:41;;;;;;;10.10;8.32;;;;;;;;;;5060185;28;20226;-85
2024/02/08 02:01:07;;;;;;;15.93;8.43;;;;;;;;;;5059981;28;20180;-85
2024/02/08 02:03:33;;;;;;;12.77;9.52;;;;;;;;;;5043868;28;20203;-85
2024/02/08 02:06:00;;;;;;;11.40;8.77;;;;;;;;;;5078362;28;20185;-85
2024/02/08 02:08:26;;;;;;;12.20;8.90;;;;;;;;;;5060143;28;20411;-85
2024/02/08 02:11:31;;;;;;;14.07;10.48;;;;;;;;;;5076404;28;20181;-85
2024/02/08 02:13:58;;;;;;;11.05;9.35;;;;;;;;;;4960607;28;20627;-85
2024/02/08 02:16:24;;;;;;;11.68;9.15;;;;;;;;;;4958944;28;20287;-85
2024/02/08 02:18:50;;;;;;;12.73;9.57;;;;;;;;;;5015311;28;20687;-85
2024/02/08 02:21:23;;;;;;;15.10;10.13;;;;;;;;;;5040342;28;20182;-84
2024/02/08 02:23:52;;;;;;;15.35;9.55;;;;;;;;;;5057698;28;20169;-85
2024/02/08 02:26:18;;;;;;;12.55;9.60;;;;;;;;;;5047759;28;20227;-85
2024/02/08 02:28:44;;;;;;;15.25;10.18;;;;;;;;;;5064404;28;20231;-85
2024/02/08 02:31:13;;;;;;;13.02;10.50;;;;;;;;;;5042901;28;20226;-85
2024/02/08 02:33:40;;;;;;;14.05;10.00;;;;;;;;;;5077741;28;20194;-85
2024/02/08 02:36:07;;;;;;;11.73;9.27;;;;;;;;;;5077139;28;20189;-85
2024/02/08 02:38:35;;;;;;;13.23;10.25;;;;;;;;;;5060025;28;20505;-85
2024/02/08 02:41:06;;;;;;;12.25;9.85;;;;;;;;;;5059353;28;20212;-84
2024/02/08 02:43:32;;;;;;;15.18;10.05;;;;;;;;;;5059892;28;20230;-85
2024/02/08 02:45:59;;;;;;;16.25;10.98;;;;;;;;;;5076139;28;20216;-85
2024/02/08 02:48:25;;;;;;;14.98;10.23;;;;;;;;;;5077496;28;20184;-85
2024/02/08 02:50:52;;;;;;;14.00;8.95;;;;;;;;;;5042668;28;20193;-85
2024/02/08 02:53:18;;;;;;;17.60;10.35;;;;;;;;;;5076414;28;20270;-85
2024/02/08 02:55:44;;;;;;;14.88;10.52;;;;;;;;;;5042357;28;20212;-85
2024/02/08 02:58:12;;;;;;;14.63;11.05;;;;;;;;;;5076742;28;20181;-85
2024/02/08 03:00:38;;;;;;;15.45;10.30;;;;;;;;;;5059116;28;20173;-85
2024/02/08 03:03:08;;;;;;;17.33;10.45;;;;;;;;;;5059529;28;20180;-85
2024/02/08 03:05:35;;;;;;;14.48;10.20;;;;;;;;;;5058261;28;20210;-85
2024/02/08 03:08:05;;;;;;;17.92;11.20;;;;;;;;;;5076308;28;20200;-85
2024/02/08 03:10:31;;;;;;;16.60;11.02;;;;;;;;;;5076401;28;20165;-85
2024/02/08 03:12:57;;;;;;;13.30;10.23;;;;;;;;;;5076953;28;20501;-85
2024/02/08 03:15:23;;;;;;;17.45;11.93;;;;;;;;;;5076042;28;20204;-85
2024/02/08 03:17:50;;;;;;;16.35;10.20;;;;;;;;;;5075246;28;20508;-85
2024/02/08 03:23:12;;;;;;;14.98;10.90;;;;;;;;;;5039334;28;20185;-85
2024/02/08 03:25:41;;;;;;;15.60;10.77;;;;;;;;;;5056857;28;20189;-85
2024/02/08 03:28:08;;;;;;;17.00;12.68;;;;;;;;;;5091987;28;20462;-85
2024/02/08 03:30:34;;;;;;;16.35;10.60;;;;;;;;;;5069068;28;20188;-85
2024/02/08 03:33:12;;;;;;;22.48;13.55;;;;;;;;;;5076484;28;20173;-85
2024/02/08 03:35:38;;;;;;;18.73;11.77;;;;;;;;;;5075554;28;20192;-85
2024/02/08 03:38:08;;;;;;;19.13;11.15;;;;;;;;;;5076247;28;20176;-85
2024/02/08 03:40:34;;;;;;;16.55;10.75;;;;;;;;;;5075376;28;20177;-85
2024/02/08 03:43:01;;;;;;;22.33;13.27;;;;;;;;;;5059028;28;20200;-85
2024/02/08 03:45:30;;;;;;;17.48;11.50;;;;;;;;;;5074321;28;20554;-85
2024/02/08 03:47:59;;;;;;;26.00;12.75;;;;;;;;;;5075872;28;20236;-85
2024/02/08 03:50:34;;;;;;;17.13;11.82;;;;;;;;;;5076149;28;20238;-84
2024/02/08 03:53:12;;;;;;;18.27;12.90;;;;;;;;;;5076638;28;20195;-85
2024/02/08 03:55:38;;;;;;;22.50;13.10;;;;;;;;;;5075019;28;20527;-85
2024/02/08 03:58:07;;;;;;;21.98;12.90;;;;;;;;;;5076448;28;20179;-85
2024/02/08 04:00:34;;;;;;;19.42;12.27;;;;;;;;;;5050484;28;20185;-85
2024/02/08 04:03:10;;;;;;;22.40;12.30;;;;;;;;;;5041748;28;20198;-85
2024/02/08 04:05:37;;;;;;;25.52;14.63;;;;;;;;;;5075271;28;20547;-85
2024/02/08 04:54:34;;;;;;;26.00;13.95;;;;;;;;;;5062799;28;20250;-84
2024/02/08 04:57:00;;;;;;;27.25;14.93;;;;;;;;;;5074132;28;20394;-84
2024/02/08 04:59:29;;;;;;;25.03;13.73;;;;;;;;;;5074056;28;20185;-84
2024/02/08 05:01:56;;;;;;;20.58;13.35;;;;;;;;;;5073673;28;20419;-85
2024/02/08 05:04:22;;;;;;;23.98;13.85;;;;;;;;;;5071932;28;20189;-85
2024/02/08 05:06:49;;;;;;;26.08;14.10;;;;;;;;;;5068226;28;20204;-84
2024/02/08 05:09:19;;;;;;;24.02;14.32;;;;;;;;;;5048714;28;20236;-84
2024/02/08 05:11:45;;;;;;;23.02;13.80;;;;;;;;;;5037861;28;20204;-84
2024/02/08 05:14:11;;;;;;;21.15;14.45;;;;;;;;;;5063778;28;20207;-84
2024/02/08 05:16:39;;;;;;;21.00;13.52;;;;;;;;;;5057183;28;20180;-85
2024/02/08 05:19:05;;;;;;;20.33;13.35;;;;;;;;;;5057052;28;20267;-84
2024/02/08 05:21:31;;;;;;;22.98;13.07;;;;;;;;;;5056944;28;20532;-85
2024/02/08 05:24:01;;;;;;;23.65;14.35;;;;;;;;;;5033559;28;20208;-84
2024/02/08 05:26:31;;;;;;;22.10;14.23;;;;;;;;;;5054846;28;20168;-84
2024/02/08 05:28:57;;;;;;;22.50;14.50;;;;;;;;;;5058913;28;20189;-84
2024/02/08 05:31:26;;;;;;;24.50;11.63;;;;;;;;;;5057185;28;20568;-85
2024/02/08 05:33:56;;;;;;;24.77;13.85;;;;;;;;;;5039757;28;20265;-85
2024/02/08 05:36:22;;;;;;;24.65;13.50;;;;;;;;;;5057657;28;20184;-85
2024/02/08 05:38:52;;;;;;;25.35;14.98;;;;;;;;;;5074419;28;20692;-82
2024/02/08 05:41:21;;;;;;;25.15;14.15;;;;;;;;;;5033359;28;20673;-84
2024/02/08 05:43:51;;;;;;;25.73;14.80;;;;;;;;;;5054315;28;20256;-83
2024/02/08 05:46:29;;;;;;;23.73;13.85;;;;;;;;;;5074008;28;20209;-84
2024/02/08 05:49:11;;;;;;;22.35;13.70;;;;;;;;;;5046106;28;20178;-84
2024/02/08 05:51:42;;;;;;;23.45;11.30;;;;;;;;;;5055470;28;20153;-84
2024/02/08 05:54:08;;;;;;;25.83;15.63;;;;;;;;;;5044157;28;20245;-83
2024/02/08 05:56:39;;;;;;;27.37;14.43;;;;;;;;;;5057222;28;20181;-83
2024/02/08 05:59:08;;;;;;;29.50;16.85;;;;;;;;;;5057520;28;20783;-83
2024/02/08 06:01:54;;;;;;;32.00;14.60;;;;;;;;;;5074842;28;20181;-83
2024/02/08 06:04:34;;;;;;;26.10;14.45;;;;;;;;;;5060302;28;20191;-82
2024/02/08 06:07:05;;;;;;;32.13;16.60;;;;;;;;;;5063402;28;20199;-83
2024/02/08 06:09:55;;;;;;;27.98;15.68;;;;;;;;;;5077595;28;20177;-83
2024/02/08 06:12:28;;;;;;;21.90;12.32;;;;;;;;;;5079138;28;20226;-84
2024/02/08 06:14:58;;;;;;;26.05;13.25;;;;;;;;;;5076652;28;20216;-85
2024/02/08 06:17:32;;;;;;;22.10;13.35;;;;;;;;;;5044830;28;20187;-84
2024/02/08 06:20:00;;;;;;;23.00;11.95;;;;;;;;;;5060174;28;20181;-84
2024/02/08 06:22:26;;;;;;;24.30;13.43;;;;;;;;;;5060311;28;20177;-84
2024/02/08 06:25:08;;;;;;;21.60;12.40;;;;;;;;;;5043270;28;20242;-85
2024/02/08 06:27:35;;;;;;;24.10;13.35;;;;;;;;;;5045767;28;20710;-84
2024/02/08 06:30:08;;;;;;;28.40;14.45;;;;;;;;;;5043338;28;20202;-85
2024/02/08 06:32:43;;;;;;;23.02;13.13;;;;;;;;;;5044598;28;20640;-84
2024/02/08 06:35:11;;;;;;;20.85;11.90;;;;;;;;;;5077739;28;20614;-84
2024/02/08 06:37:44;;;;;;;21.13;12.02;;;;;;;;;;5076844;28;20208;-84
2024/02/08 07:38:07;;;;;;;21.10;11.55;;;;;;;;;;5061746;28;20668;-82
2024/02/08 07:40:35;;;;;;;25.23;13.67;;;;;;;;;;5076844;28;20181;-82
2024/02/08 07:45:51;;;;;;;22.98;11.98;;;;;;;;;;5076969;28;20628;-82
2024/02/08 07:48:37;;;;;;;32.00;14.45;;;;;;;;;;5059068;28;20187;-82
2024/02/08 07:51:04;;;;;;;31.02;15.50;;;;;;;;;;5076659;28;20185;-82
2024/02/08 07:53:45;;;;;;;50.85;20.40;;;;;;;;;;5058093;28;20209;-82
2024/02/08 07:58:52;;;;;;;38.92;18.90;;;;;;;;;;5076690;28;20207;-82
2024/02/08 08:01:19;;;;;;;15.60;9.75;;;;;;;;;;5058133;28;20186;-82
2024/02/08 08:03:56;;;;;;;15.60;10.32;;;;;;;;;;5057940;28;20548;-82
2024/02/08 08:06:22;;;;;;;20.75;11.10;;;;;;;;;;5075590;28;20209;-83
2024/02/08 08:08:57;;;;;;;17.23;10.30;;;;;;;;;;5076116;28;20258;-83
2024/02/08 08:11:25;;;;;;;17.33;11.80;;;;;;;;;;5075801;28;20182;-83
2024/02/08 08:18:57;;;;;;;19.50;12.50;;;;;;;;;;5076024;28;20172;-83
2024/02/08 08:21:27;;;;;;;14.18;8.98;;;;;;;;;;5057734;28;20232;-83
2024/02/08 08:24:03;;;;;;;19.88;10.15;;;;;;;;;;5074019;28;20181;-83
2024/02/08 08:26:39;;;;;;;15.70;9.63;;;;;;;;;;5073801;28;20183;-83
2024/02/08 08:29:13;;;;;;;20.85;10.43;;;;;;;;;;5074324;28;20177;-83
2024/02/08 08:31:51;;;;;;;16.92;10.10;;;;;;;;;;5075135;28;20177;-82
2024/02/08 08:37:02;;;;;;;16.48;9.02;;;;;;;;;;5075263;28;20189;-87
2024/02/08 08:42:16;;;;;;;12.75;8.02;;;;;;;;;;5075351;28;20531;-86
2024/02/08 08:44:49;;;;;;;17.13;9.75;;;;;;;;;;5053690;28;20192;-83
2024/02/08 08:47:24;;;;;;;14.77;8.75;;;;;;;;;;5055834;28;20181;-82
2024/02/08 08:49:50;;;;;;;13.65;8.55;;;;;;;;;;5038403;28;20184;-81
2024/02/08 08:52:23;;;;;;;16.35;9.65;;;;;;;;;;5055586;28;20177;-82
2024/02/08 08:54:57;;;;;;;15.68;11.35;;;;;;;;;;5057480;28;20208;-82
2024/02/08 08:57:25;;;;;;;17.80;10.55;;;;;;;;;;5055128;28;20220;-82
2024/02/08 08:59:52;;;;;;;16.05;9.70;;;;;;;;;;5056392;28;20180;-81
2024/02/08 09:02:19;;;;;;;15.68;10.88;;;;;;;;;;5057416;28;20205;-82
2024/02/08 09:04:46;;;;;;;18.10;10.65;;;;;;;;;;5057045;28;20200;-82
2024/02/08 09:07:12;;;;;;;16.13;10.60;;;;;;;;;;5056200;28;20607;-82
2024/02/08 09:09:54;;;;;;;17.08;10.20;;;;;;;;;;5075536;28;20180;-82
2024/02/08 09:12:28;;;;;;;15.27;10.50;;;;;;;;;;5068904;28;20667;-82
2024/02/08 09:14:54;;;;;;;23.13;11.43;;;;;;;;;;5075395;28;20283;-81
2024/02/08 09:17:25;;;;;;;17.25;9.73;;;;;;;;;;5075294;28;20613;-82
2024/02/08 09:19:59;;;;;;;19.42;10.63;;;;;;;;;;5041930;28;20647;-82
2024/02/08 09:22:31;;;;;;;19.08;11.45;;;;;;;;;;5057264;28;20185;-82
2024/02/08 09:24:57;;;;;;;20.15;10.82;;;;;;;;;;5057089;28;20540;-81
2024/02/08 09:27:34;;;;;;;19.80;12.48;;;;;;;;;;5074759;28;20228;-82
2024/02/08 09:30:08;;;;;;;21.73;12.48;;;;;;;;;;5074864;28;20184;-81
2024/02/08 09:32:43;;;;;;;20.52;12.23;;;;;;;;;;5058879;28;20157;-82
2024/02/08 09:35:12;;;;;;;21.48;12.60;;;;;;;;;;5074601;28;20204;-81
2024/02/08 09:37:45;;;;;;;23.13;14.68;;;;;;;;;;5078522;28;20177;-82
2024/02/08 09:40:20;;;;;;;27.70;14.80;;;;;;;;;;5078552;28;20176;-81
2024/02/08 09:42:56;;;;;;;28.27;15.32;;;;;;;;;;5041739;28;20177;-82
2024/02/08 09:48:00;;;;;;;26.80;16.40;;;;;;;;;;5058473;28;20578;-81
2024/02/08 09:50:31;;;;;;;28.50;16.70;;;;;;;;;;5041479;28;20177;-82
2024/02/08 09:53:07;;;;;;;25.55;14.20;;;;;;;;;;5041461;28;20268;-81
2024/02/08 09:55:33;;;;;;;28.40;15.52;;;;;;;;;;5041229;28;20605;-82
2024/02/08 09:58:04;;;;;;;28.92;14.38;;;;;;;;;;5040629;28;20182;-81
2024/02/08 10:03:31;;;;;;;21.30;13.75;;;;;;;;;;5058805;28;20168;-81
2024/02/08 10:05:59;;;;;;;20.17;13.20;;;;;;;;;;5058732;28;20162;-81
2024/02/08 10:08:28;;;;;;;23.35;14.80;;;;;;;;;;5040734;28;20169;-81
2024/02/08 10:11:23;;;;;;;24.45;15.40;;;;;;;;;;5041681;28;20256;-81
2024/02/08 10:14:01;;;;;;;22.58;12.85;;;;;;;;;;5041341;28;20206;-81
2024/02/08 10:16:43;;;;;;;21.00;12.77;;;;;;;;;;5041028;28;20268;-81
2024/02/08 10:19:27;;;;;;;23.92;13.40;;;;;;;;;;5058144;28;20181;-81
2024/02/08 10:21:57;;;;;;;22.05;12.77;;;;;;;;;;5058175;28;20197;-81
2024/02/08 10:27:08;;;;;;;17.63;12.75;;;;;;;;;;5063720;28;20235;-81
2024/02/08 10:29:33;;;;;;;24.10;13.38;;;;;;;;;;5053573;28;20194;-81
2024/02/08 10:31:59;;;;;;;22.87;14.27;;;;;;;;;;5073587;28;20209;-81
2024/02/08 10:34:39;;;;;;;21.70;14.13;;;;;;;;;;5060311;28;20509;-81
2024/02/08 10:37:06;;;;;;;22.05;15.05;;;;;;;;;;5060384;28;20180;-81
2024/02/08 10:39:32;;;;;;;21.58;13.10;;;;;;;;;;5078532;28;20648;-81
2024/02/08 10:41:58;;;;;;;23.15;14.05;;;;;;;;;;5059829;28;20195;-80
2024/02/08 10:44:27;;;;;;;24.75;15.30;;;;;;;;;;5044036;28;20637;-81
2024/02/08 10:47:06;;;;;;;23.98;16.48;;;;;;;;;;5077952;28;20172;-82
2024/02/08 10:49:42;;;;;;;24.60;14.80;;;;;;;;;;5077418;28;20149;-81
2024/02/08 10:52:11;;;;;;;24.02;14.77;;;;;;;;;;5077658;28;20177;-81
2024/02/08 10:54:48;;;;;;;24.65;15.02;;;;;;;;;;5059943;28;20210;-82
2024/02/08 10:57:39;;;;;;;24.80;15.63;;;;;;;;;;5039159;28;20226;-81
2024/02/08 11:00:49;;;;;;;25.05;17.08;;;;;;;;;;5039516;28;20310;-82
2024/02/08 11:03:08;;;;;;;24.55;15.60;;;;;;;;;;5056845;28;20177;-82
2024/02/08 11:06:00;;;;;;;24.23;16.50;;;;;;;;;;5057567;28;20187;-81
2024/02/08 11:08:50;;;;;;;25.63;16.27;;;;;;;;;;5070659;28;20183;-81
2024/02/08 11:11:20;;;;;;;21.50;14.43;;;;;;;;;;5077524;28;20170;-82
2024/02/08 11:13:53;;;;;;;19.92;13.60;;;;;;;;;;5078680;28;20176;-82
2024/02/08 11:16:33;;;;;;;18.05;14.10;;;;;;;;;;5059691;28;20189;-81
2024/02/08 11:19:04;;;;;;;21.55;13.20;;;;;;;;;;5077830;28;20228;-80
2024/02/08 11:21:43;;;;;;;23.65;12.95;;;;;;;;;;5077948;28;20172;-81
2024/02/08 11:24:27;;;;;;;20.70;13.38;;;;;;;;;;5059390;28;20644;-81
2024/02/08 11:26:57;;;;;;;19.98;11.40;;;;;;;;;;5077210;28;20221;-82
2024/02/08 11:29:26;;;;;;;17.00;11.60;;;;;;;;;;5059271;28;20185;-82
2024/02/08 11:31:55;;;;;;;23.63;14.10;;;;;;;;;;5059673;28;20591;-81
2024/02/08 11:34:24;;;;;;;16.30;10.75;;;;;;;;;;5059430;28;20197;-82
2024/02/08 11:36:58;;;;;;;16.02;10.43;;;;;;;;;;5076947;28;20185;-82
2024/02/08 11:39:29;;;;;;;24.48;15.48;;;;;;;;;;5059005;28;20171;-82
2024/02/08 11:42:00;;;;;;;19.05;13.70;;;;;;;;;;5058570;28;20184;-82
2024/02/08 11:44:28;;;;;;;20.95;13.73;;;;;;;;;;5077020;28;20173;-82
2024/02/08 11:46:58;;;;;;;19.90;13.55;;;;;;;;;;5058316;28;20184;-82
2024/02/08 11:49:31;;;;;;;23.73;14.77;;;;;;;;;;5058627;28;20176;-81
2024/02/08 11:52:10;;;;;;;22.98;14.75;;;;;;;;;;5076489;28;20522;-82
2024/02/08 11:54:40;;;;;;;20.15;13.85;;;;;;;;;;5058870;28;20267;-82
2024/02/08 11:57:09;;;;;;;18.17;13.10;;;;;;;;;;5076009;28;20313;-81
2024/02/08 11:59:38;;;;;;;19.95;14.93;;;;;;;;;;5076335;28;20175;-82
2024/02/08 12:02:10;;;;;;;19.63;14.60;;;;;;;;;;5058802;28;20200;-81
2024/02/08 12:04:36;;;;;;;20.67;14.07;;;;;;;;;;5076679;28;20180;-82
2024/02/08 12:07:04;;;;;;;18.65;12.48;;;;;;;;;;5041837;28;20188;-80
2024/02/08 12:09:31;;;;;;;27.20;13.70;;;;;;;;;;5076407;28;20168;-82
2024/02/08 12:11:57;;;;;;;16.73;13.02;;;;;;;;;;5058184;28;20250;-82
2024/02/08 12:14:27;;;;;;;17.13;11.20;;;;;;;;;;5057949;28;20258;-81
2024/02/08 12:16:57;;;;;;;17.23;12.48;;;;;;;;;;5058375;28;20185;-82
2024/02/08 12:19:24;;;;;;;15.65;11.18;;;;;;;;;;5075995;28;20180;-82
2024/02/08 12:21:56;;;;;;;17.70;12.73;;;;;;;;;;5076113;28;20172;-82
2024/02/08 12:24:23;;;;;;;17.02;11.23;;;;;;;;;;5075991;28;20260;-82
2024/02/08 12:26:53;;;;;;;15.32;10.60;;;;;;;;;;5076072;28;20281;-82
2024/02/08 12:29:20;;;;;;;16.80;12.00;;;;;;;;;;5075814;28;20178;-82
2024/02/08 12:31:47;;;;;;;16.60;11.57;;;;;;;;;;5057896;28;20183;-82
2024/02/08 12:34:14;;;;;;;17.50;12.38;;;;;;;;;;5075785;28;20200;-82
2024/02/08 12:36:43;;;;;;;18.45;12.50;;;;;;;;;;5058070;28;20187;-82
2024/02/08 12:39:17;;;;;;;18.50;12.77;;;;;;;;;;5075803;28;20238;-82
2024/02/08 12:41:44;;;;;;;15.35;11.15;;;;;;;;;;5075424;28;20230;-82
2024/02/08 12:44:11;;;;;;;24.35;14.73;;;;;;;;;;5057689;28;20214;-82
2024/02/08 12:46:37;;;;;;;18.60;12.30;;;;;;;;;;5057716;28;20189;-82
2024/02/08 12:49:07;;;;;;;16.92;12.40;;;;;;;;;;5075917;28;20185;-82
2024/02/08 12:51:36;;;;;;;27.13;14.35;;;;;;;;;;5057867;28;20208;-82
2024/02/08 12:54:07;;;;;;;29.08;16.65;;;;;;;;;;5075360;28;20193;-82
2024/02/08 12:56:35;;;;;;;17.25;11.80;;;;;;;;;;5058265;28;20176;-83
2024/02/08 12:59:02;;;;;;;24.95;13.65;;;;;;;;;;5075435;28;20169;-82
2024/02/08 13:01:34;;;;;;;25.33;14.85;;;;;;;;;;5075613;28;20173;-82
2024/02/08 13:04:00;;;;;;;26.95;14.30;;;;;;;;;;5075496;28;20180;-82
2024/02/08 13:06:27;;;;;;;31.85;17.48;;;;;;;;;;5075167;28;20250;-82
2024/02/08 13:09:02;;;;;;;16.83;10.93;;;;;;;;;;5057896;28;20250;-81
2024/02/08 13:11:28;;;;;;;14.52;9.70;;;;;;;;;;5060600;28;20628;-81
2024/02/08 13:14:04;;;;;;;16.80;12.30;;;;;;;;;;5064000;28;20265;-81
2024/02/08 13:16:33;;;;;;;13.80;10.90;;;;;;;;;;5082251;28;20413;-81
2024/02/08 13:18:59;;;;;;;15.40;9.80;;;;;;;;;;5064764;28;20184;-81
2024/02/08 13:21:25;;;;;;;16.88;12.77;;;;;;;;;;5064178;28;20584;-81
2024/02/08 13:23:51;;;;;;;15.48;12.63;;;;;;;;;;5082572;28;20746;-82
2024/02/08 13:26:18;;;;;;;13.75;10.75;;;;;;;;;;5064180;28;20267;-82
2024/02/08 13:28:44;;;;;;;15.13;12.07;;;;;;;;;;5064070;28;20711;-82
2024/02/08 13:31:10;;;;;;;18.88;12.75;;;;;;;;;;5063984;28;20709;-81
2024/02/08 13:33:38;;;;;;;13.20;10.80;;;;;;;;;;5064556;28;20176;-81
2024/02/08 13:36:08;;;;;;;15.30;10.85;;;;;;;;;;5064407;28;20813;-82
2024/02/08 13:38:38;;;;;;;14.18;9.88;;;;;;;;;;5064626;28;20199;-81
2024/02/08 13:41:05;;;;;;;13.00;10.70;;;;;;;;;;5064132;28;20262;-82
2024/02/08 13:43:32;;;;;;;12.82;9.65;;;;;;;;;;5064018;28;20535;-82
2024/02/08 13:45:59;;;;;;;11.75;9.43;;;;;;;;;;5063644;28;20770;-81
2024/02/08 13:48:29;;;;;;;15.85;9.35;;;;;;;;;;5063744;28;20187;-81
2024/02/08 13:50:56;;;;;;;11.75;8.63;;;;;;;;;;5063846;28;20291;-82
2024/02/08 13:53:22;;;;;;;18.40;9.35;;;;;;;;;;5064009;28;20670;-81
2024/02/08 13:55:52;;;;;;;14.90;8.70;;;;;;;;;;5064054;28;20247;-82
2024/02/08 13:58:20;;;;;;;11.65;7.63;;;;;;;;;;5082085;28;20388;-82
2024/02/08 14:00:46;;;;;;;12.75;9.18;;;;;;;;;;5063845;28;20211;-81
2024/02/08 14:03:14;;;;;;;11.38;8.85;;;;;;;;;;5081849;28;20563;-80
2024/02/08 14:05:41;;;;;;;11.55;8.30;;;;;;;;;;5081984;28;20188;-81
2024/02/08 14:08:09;;;;;;;13.88;8.45;;;;;;;;;;5081661;28;20173;-82
2024/02/08 14:10:36;;;;;;;8.57;6.40;;;;;;;;;;5028387;28;20654;-82
2024/02/08 14:13:14;;;;;;;12.77;8.13;;;;;;;;;;5044222;28;20224;-82
2024/02/08 14:15:47;;;;;;;8.73;7.22;;;;;;;;;;5053732;28;20260;-82
2024/02/08 14:18:23;;;;;;;9.50;7.63;;;;;;;;;;5081606;28;20165;-82
2024/02/08 14:20:53;;;;;;;9.05;7.60;;;;;;;;;;5081625;28;20179;-82
2024/02/08 14:23:37;;;;;;;14.20;8.35;;;;;;;;;;5060663;28;20197;-81
2024/02/08 14:28:33;;;;;;;10.88;7.45;;;;;;;;;;5078344;28;20228;-82
2024/02/08 14:31:02;;;;;;;9.60;7.35;;;;;;;;;;5061127;28;20234;-82
2024/02/08 14:33:28;;;;;;;11.90;8.05;;;;;;;;;;5078042;28;20169;-82
2024/02/08 14:35:55;;;;;;;11.57;8.25;;;;;;;;;;5060316;28;20208;-81
2024/02/08 14:38:26;;;;;;;11.30;8.07;;;;;;;;;;5059962;28;20180;-81
2024/02/08 14:40:53;;;;;;;11.70;7.65;;;;;;;;;;5060534;28;20239;-81
2024/02/08 14:43:25;;;;;;;10.70;7.70;;;;;;;;;;5060058;28;20242;-81
2024/02/08 14:45:54;;;;;;;9.40;7.03;;;;;;;;;;5078124;28;20176;-82
2024/02/08 14:48:27;;;;;;;14.38;7.47;;;;;;;;;;5077514;28;20200;-81
2024/02/08 14:51:29;;;;;;;14.23;7.40;;;;;;;;;;5060248;28;20523;-82
2024/02/08 14:53:58;;;;;;;12.80;8.70;;;;;;;;;;5077578;28;20244;-81
2024/02/08 14:56:24;;;;;;;13.38;9.57;;;;;;;;;;5044180;28;20169;-81
2024/02/08 15:01:38;;;;;;;14.85;8.18;;;;;;;;;;5062360;28;20632;-81
2024/02/08 15:04:25;;;;;;;15.15;8.30;;;;;;;;;;5078117;28;20181;-81
2024/02/08 15:14:45;;;;;;;9.27;6.05;;;;;;;;;;5077893;28;20240;-82
2024/02/08 15:17:11;;;;;;;11.73;7.15;;;;;;;;;;5043056;28;20215;-82
2024/02/08 15:19:48;;;;;;;11.00;6.80;;;;;;;;;;5077494;28;20252;-81
2024/02/08 15:24:57;;;;;;;14.05;7.63;;;;;;;;;;5077686;28;20632;-82
2024/02/08 15:27:31;;;;;;;12.80;7.75;;;;;;;;;;5077474;28;20217;-82
2024/02/08 15:30:18;;;;;;;10.65;7.30;;;;;;;;;;5077361;28;20180;-82
2024/02/08 15:32:58;;;;;;;15.40;8.40;;;;;;;;;;5077389;28;20153;-82
2024/02/08 15:35:36;;;;;;;11.27;7.15;;;;;;;;;;5057548;28;20357;-83
2024/02/08 15:40:47;;;;;;;14.88;9.25;;;;;;;;;;5060285;28;20189;-82
2024/02/08 15:43:15;;;;;;;12.05;8.05;;;;;;;;;;5059237;28;20168;-82
2024/02/08 15:45:42;;;;;;;11.63;7.68;;;;;;;;;;5058903;28;20766;-82
2024/02/08 15:48:10;;;;;;;13.55;5.32;;;;;;;;;;5076336;28;20179;-82
2024/02/08 15:50:42;;;;;;;10.00;5.93;;;;;;;;;;5058633;28;20184;-82
2024/02/08 15:53:17;;;;;;;11.65;4.80;;;;;;;;;;5076881;28;20255;-82
2024/02/08 15:55:49;;;;;;;9.10;5.45;;;;;;;;;;5055584;28;20558;-82
2024/02/08 15:58:34;;;;;;;7.35;4.25;;;;;;;;;;5042331;28;20379;-82
2024/02/08 16:03:52;;;;;;;9.13;4.78;;;;;;;;;;5041607;28;20550;-82
2024/02/08 16:09:07;;;;;;;13.50;5.72;;;;;;;;;;5058326;28;20238;-81
2024/02/08 16:11:34;;;;;;;8.68;4.53;;;;;;;;;;5057414;28;20264;-81
2024/02/08 16:14:04;;;;;;;7.03;4.80;;;;;;;;;;5075800;28;20664;-82
2024/02/08 16:16:34;;;;;;;11.07;5.47;;;;;;;;;;5074389;28;20185;-82
2024/02/08 16:19:22;;;;;;;17.33;4.60;;;;;;;;;;5075925;28;20560;-82
2024/02/08 16:21:46;;;;;;;14.80;5.20;;;;;;;;;;5076046;28;20624;-83
2024/02/08 16:24:18;;;;;;;13.30;4.47;;;;;;;;;;5041763;28;20279;-83
2024/02/08 16:26:56;;;;;;;11.38;4.85;;;;;;;;;;5053019;28;20310;-82
2024/02/08 16:29:34;;;;;;;9.00;4.97;;;;;;;;;;5052939;28;20730;-82
2024/02/08 16:32:06;;;;;;;7.88;3.78;;;;;;;;;;5055205;28;20176;-82
2024/02/08 16:34:34;;;;;;;18.85;4.22;;;;;;;;;;5054787;28;20275;-83
2024/02/08 16:37:03;;;;;;;12.57;4.55;;;;;;;;;;5055876;28;20728;-83
2024/02/08 16:39:33;;;;;;;11.18;4.45;;;;;;;;;;5038260;28;20712;-84
2024/02/08 16:45:05;;;;;;;9.77;4.10;;;;;;;;;;5055529;28;20205;-83
2024/02/08 16:47:34;;;;;;;11.05;3.50;;;;;;;;;;5051735;28;20408;-83
2024/02/08 16:50:16;;;;;;;9.00;3.58;;;;;;;;;;5040151;28;20172;-83
2024/02/08 16:52:46;;;;;;;16.27;3.50;;;;;;;;;;5053985;28;20189;-83
2024/02/08 16:55:22;;;;;;;11.35;3.42;;;;;;;;;;5054256;28;20243;-83
2024/02/08 16:58:00;;;;;;;9.57;3.13;;;;;;;;;;5055488;28;20165;-82
2024/02/08 17:00:38;;;;;;;9.10;3.20;;;;;;;;;;5068873;28;20576;-83
2024/02/08 17:03:05;;;;;;;5.82;2.90;;;;;;;;;;5075939;28;20678;-83
2024/02/08 17:05:53;;;;;;;8.50;2.85;;;;;;;;;;5057605;28;20572;-83
2024/02/08 17:08:20;;;;;;;13.40;3.15;;;;;;;;;;5064342;28;20181;-83
2024/02/08 17:10:56;;;;;;;6.20;3.08;;;;;;;;;;5054940;28;20177;-83
2024/02/08 17:13:30;;;;;;;5.47;2.10;;;;;;;;;;5055732;28;20157;-83
2024/02/08 17:18:44;;;;;;;5.95;2.00;;;;;;;;;;5068811;28;20193;-84
2024/02/08 17:21:27;;;;;;;3.95;1.58;;;;;;;;;;5055383;28;20178;-83
2024/02/08 17:23:59;;;;;;;3.17;1.55;;;;;;;;;;5055125;28;20197;-83